createdAt,value
2023-01-12T21:07:12.340Z,10.42
2023-01-12T21:09:41.837Z,10.49
2023-01-12T21:12:11.001Z,10.35
2023-01-12T21:14:40.460Z,10.56
2023-01-12T21:17:09.802Z,10.64
2023-01-12T21:19:39.082Z,10.70
2023-01-12T21:22:07.842Z,10.51
2023-01-12T21:24:40.608Z,10.57
2023-01-12T21:27:09.964Z,10.63
2023-01-12T21:29:38.905Z,10.47
2023-01-12T21:32:07.483Z,10.46
2023-01-12T21:34:35.936Z,10.60
2023-01-12T21:37:05.109Z,10.68
2023-01-12T21:39:33.557Z,10.83
2023-01-12T21:42:21.049Z,10.83
2023-01-12T21:44:49.673Z,10.73
2023-01-12T21:47:17.873Z,10.87
2023-01-12T21:49:45.959Z,10.59
2023-01-12T21:52:13.943Z,10.63
2023-01-12T21:54:42.109Z,10.89
2023-01-12T21:57:11.558Z,10.75
2023-01-12T21:59:39.704Z,10.75
2023-01-12T22:02:07.889Z,10.78
2023-01-12T22:04:36.295Z,10.75
2023-01-12T22:07:04.711Z,10.87
2023-01-12T22:09:33.579Z,10.74
2023-01-12T22:12:02.469Z,10.62
2023-01-12T22:14:32.722Z,10.64
2023-01-12T22:17:01.269Z,10.74
2023-01-12T22:19:29.891Z,10.90
2023-01-12T22:21:58.678Z,10.92
2023-01-12T22:24:27.976Z,10.92
2023-01-12T22:26:56.320Z,10.79
2023-01-12T22:29:25.093Z,10.85
2023-01-12T22:31:54.999Z,10.90
2023-01-12T22:34:25.707Z,11.02
2023-01-12T22:36:54.068Z,11.03
2023-01-12T22:39:22.320Z,11.07
2023-01-12T22:41:51.529Z,10.91
2023-01-12T22:44:20.455Z,10.88
2023-01-12T22:46:49.493Z,11.12
2023-01-12T22:49:19.791Z,10.86
2023-01-12T22:51:48.508Z,10.79
2023-01-12T22:54:17.385Z,10.87
2023-01-12T22:56:46.936Z,10.83
2023-01-12T22:59:16.357Z,10.74
2023-01-12T23:01:45.127Z,10.92
2023-01-12T23:04:14.027Z,11.11
2023-01-12T23:06:43.944Z,11.10
2023-01-12T23:09:13.820Z,11.03
2023-01-12T23:11:43.136Z,11.07
2023-01-12T23:14:11.943Z,10.90
2023-01-12T23:16:40.402Z,10.84
2023-01-12T23:19:09.508Z,11.12
2023-01-12T23:21:38.072Z,10.99
2023-01-12T23:24:08.423Z,11.06
2023-01-12T23:26:37.195Z,10.99
2023-01-12T23:29:05.911Z,10.90
2023-01-12T23:31:36.044Z,11.15
2023-01-12T23:34:05.526Z,10.90
2023-01-12T23:36:35.127Z,10.98
2023-01-12T23:39:05.494Z,10.72
2023-01-12T23:41:37.217Z,10.80
2023-01-12T23:44:08.158Z,10.72
2023-01-12T23:46:38.515Z,10.70
2023-01-12T23:49:07.958Z,10.71
2023-01-12T23:51:36.879Z,10.73
2023-01-12T23:54:06.556Z,10.76
2023-01-12T23:56:37.903Z,10.83
2023-01-12T23:59:09.868Z,10.93
